createdAt,value
2023-04-13T00:01:34.942Z,100.00
2023-04-13T00:04:38.653Z,100.00
2023-04-13T00:07:43.644Z,100.00
2023-04-13T00:10:46.703Z,100.00
2023-04-13T00:13:53.438Z,100.00
2023-04-13T00:16:56.681Z,100.00
2023-04-13T00:19:59.711Z,100.00
2023-04-13T00:23:03.021Z,100.00
2023-04-13T00:26:06.803Z,100.00
2023-04-13T00:29:11.672Z,100.00
2023-04-13T00:32:17.632Z,100.00
2023-04-13T00:35:25.248Z,100.00
2023-04-13T00:38:29.869Z,100.00
2023-04-13T00:41:33.174Z,100.00
2023-04-13T00:44:37.773Z,100.00
2023-04-13T00:47:46.605Z,100.00
2023-04-13T00:50:49.883Z,100.00
2023-04-13T00:53:53.087Z,100.00
2023-04-13T00:56:57.121Z,100.00
2023-04-13T01:00:06.449Z,100.00
2023-04-13T01:03:10.879Z,100.00
2023-04-13T01:06:21.148Z,100.00
2023-04-13T01:09:33.148Z,100.00
2023-04-13T01:12:48.145Z,100.00
2023-04-13T01:16:03.894Z,100.00
2023-04-13T01:19:18.565Z,100.00
2023-04-13T01:22:25.765Z,100.00
2023-04-13T01:25:40.717Z,100.00
2023-04-13T01:28:47.436Z,100.00
2023-04-13T01:31:53.795Z,100.00
2023-04-13T01:34:57.211Z,100.00
2023-04-13T01:38:00.802Z,100.00
2023-04-13T01:41:07.055Z,100.00
2023-04-13T01:44:13.692Z,100.00
2023-04-13T01:47:21.408Z,100.00
2023-04-13T01:50:35.358Z,100.00
2023-04-13T01:53:54.892Z,100.00
2023-04-13T01:57:00.263Z,100.00
2023-04-13T02:00:12.678Z,100.00
2023-04-13T02:03:22.596Z,100.00
2023-04-13T02:06:25.947Z,100.00
2023-04-13T02:09:29.346Z,100.00
2023-04-13T02:12:33.025Z,100.00
2023-04-13T02:15:39.040Z,100.00
2023-04-13T02:18:42.350Z,100.00
2023-04-13T02:21:47.812Z,100.00
2023-04-13T02:24:52.425Z,100.00
2023-04-13T02:27:55.814Z,100.00
2023-04-13T02:31:03.310Z,100.00
2023-04-13T02:34:06.349Z,100.00
2023-04-13T02:37:11.327Z,100.00
2023-04-13T02:40:18.037Z,100.00
2023-04-13T02:43:22.117Z,100.00
2023-04-13T02:46:26.662Z,100.00
2023-04-13T02:49:41.359Z,100.00
2023-04-13T02:53:03.514Z,100.00
2023-04-13T02:56:09.582Z,100.00
2023-04-13T02:59:14.608Z,100.00
2023-04-13T03:02:21.510Z,100.00
2023-04-13T03:05:25.109Z,100.00
2023-04-13T03:08:28.474Z,100.00
2023-04-13T03:11:42.405Z,100.00
2023-04-13T03:14:49.756Z,100.00
2023-04-13T03:18:00.507Z,100.00
2023-04-13T03:21:06.226Z,100.00
2023-04-13T03:24:15.515Z,100.00
2023-04-13T03:27:20.971Z,100.00
2023-04-13T03:30:25.846Z,100.00
2023-04-13T03:33:34.698Z,100.00
2023-04-13T03:36:39.756Z,100.00
2023-04-13T03:39:43.089Z,100.00
2023-04-13T03:42:50.647Z,100.00
2023-04-13T03:45:57.342Z,100.00
2023-04-13T03:49:02.107Z,100.00
2023-04-13T03:52:05.720Z,100.00
2023-04-13T03:55:14.207Z,100.00
2023-04-13T03:58:22.127Z,100.00
2023-04-13T04:01:29.096Z,100.00
2023-04-13T04:04:36.310Z,100.00
2023-04-13T04:07:39.496Z,100.00
2023-04-13T04:10:43.561Z,100.00
2023-04-13T04:13:52.502Z,100.00
2023-04-13T04:16:55.823Z,100.00
2023-04-13T04:20:01.014Z,100.00
2023-04-13T04:23:05.236Z,100.00
2023-04-13T04:26:17.979Z,100.00
2023-04-13T04:29:37.496Z,100.00
2023-04-13T04:33:04.313Z,100.00
2023-04-13T04:36:16.265Z,100.00
2023-04-13T04:39:32.877Z,100.00
2023-04-13T04:42:45.616Z,100.00
2023-04-13T04:45:59.009Z,100.00
2023-04-13T04:49:03.487Z,100.00
2023-04-13T04:52:12.301Z,100.00
2023-04-13T04:55:16.696Z,100.00
2023-04-13T04:58:22.266Z,100.00
2023-04-13T05:01:29.801Z,100.00
2023-04-13T05:04:42.179Z,100.00
2023-04-13T05:07:47.183Z,100.00
2023-04-13T05:10:51.305Z,100.00
2023-04-13T05:13:56.855Z,100.00
2023-04-13T05:17:02.246Z,100.00
2023-04-13T05:20:13.838Z,100.00
2023-04-13T05:23:32.381Z,100.00
2023-04-13T05:26:43.145Z,100.00
2023-04-13T05:29:49.401Z,100.00
2023-04-13T05:33:06.024Z,100.00
2023-04-13T05:36:10.847Z,100.00
2023-04-13T05:39:17.614Z,100.00
2023-04-13T05:42:21.362Z,100.00
2023-04-13T05:45:24.762Z,100.00
2023-04-13T05:48:39.472Z,100.00
2023-04-13T05:51:44.723Z,100.00
2023-04-13T05:54:49.945Z,100.00
2023-04-13T05:57:57.716Z,100.00
2023-04-13T06:01:01.641Z,100.00
2023-04-13T06:04:09.557Z,100.00
2023-04-13T06:07:21.287Z,100.00
2023-04-13T06:10:26.635Z,100.00
2023-04-13T06:13:29.684Z,100.00
2023-04-13T06:16:32.734Z,100.00
2023-04-13T06:19:37.317Z,100.00
2023-04-13T06:22:41.839Z,100.00
2023-04-13T06:25:46.606Z,100.00
2023-04-13T06:28:53.225Z,100.00
2023-04-13T06:31:57.065Z,100.00
2023-04-13T06:35:03.221Z,100.00
2023-04-13T06:38:11.898Z,100.00
2023-04-13T06:41:29.812Z,100.00
2023-04-13T06:44:48.819Z,100.00
2023-04-13T06:47:53.948Z,100.00
2023-04-13T06:50:59.091Z,100.00
2023-04-13T06:54:03.855Z,100.00
2023-04-13T06:57:08.586Z,100.00
2023-04-13T07:00:28.810Z,100.00
2023-04-13T07:03:34.016Z,100.00
2023-04-13T07:06:38.126Z,100.00
2023-04-13T07:09:43.641Z,100.00
2023-04-13T07:12:48.295Z,100.00
2023-04-13T07:15:52.681Z,100.00
2023-04-13T07:18:55.821Z,100.00
2023-04-13T07:21:59.357Z,100.00
2023-04-13T07:25:03.046Z,100.00
2023-04-13T07:28:08.051Z,100.00
2023-04-13T07:31:12.015Z,100.00
2023-04-13T07:34:17.364Z,100.00
2023-04-13T07:37:22.700Z,100.00
2023-04-13T07:40:26.097Z,100.00
2023-04-13T07:43:35.253Z,100.00
2023-04-13T07:46:43.025Z,100.00
2023-04-13T07:49:46.304Z,100.00
2023-04-13T07:52:53.645Z,100.00
2023-04-13T07:55:59.225Z,100.00
2023-04-13T07:59:06.534Z,100.00
2023-04-13T08:02:12.426Z,100.00
2023-04-13T08:05:18.208Z,100.00
2023-04-13T08:08:21.664Z,100.00
2023-04-13T08:11:27.050Z,100.00
2023-04-13T08:14:39.622Z,100.00
2023-04-13T08:17:42.897Z,100.00
2023-04-13T08:20:46.813Z,100.00
2023-04-13T08:23:51.647Z,100.00
2023-04-13T08:26:58.078Z,100.00
2023-04-13T08:30:03.810Z,100.00
2023-04-13T08:33:17.625Z,100.00
2023-04-13T08:36:20.714Z,100.00
2023-04-13T08:39:29.542Z,100.00
2023-04-13T08:42:33.121Z,100.00
2023-04-13T08:45:37.686Z,100.00
2023-04-13T08:48:53.462Z,100.00
2023-04-13T08:52:00.618Z,100.00
2023-04-13T08:55:05.913Z,100.00
2023-04-13T08:58:14.747Z,100.00
2023-04-13T09:01:20.786Z,100.00
2023-04-13T09:04:33.141Z,100.00
2023-04-13T09:07:38.737Z,100.00
2023-04-13T09:10:48.124Z,100.00
2023-04-13T09:13:51.856Z,100.00
2023-04-13T09:16:59.218Z,100.00
2023-04-13T09:20:22.149Z,100.00
2023-04-13T09:23:25.938Z,100.00
2023-04-13T09:26:29.053Z,100.00
2023-04-13T09:29:34.630Z,100.00
2023-04-13T09:32:38.952Z,100.00
2023-04-13T09:35:45.500Z,100.00
2023-04-13T09:38:53.504Z,100.00
2023-04-13T09:41:56.645Z,100.00
2023-04-13T09:45:00.239Z,100.00
2023-04-13T09:48:05.663Z,100.00
2023-04-13T09:51:09.812Z,100.00
2023-04-13T09:54:12.944Z,100.00
2023-04-13T09:57:25.730Z,100.00
2023-04-13T10:00:30.082Z,100.00
2023-04-13T10:03:36.162Z,100.00
2023-04-13T10:06:40.694Z,100.00
2023-04-13T10:09:44.171Z,100.00
2023-04-13T10:12:50.763Z,100.00
2023-04-13T10:16:36.685Z,100.00
2023-04-13T10:19:44.716Z,100.00
2023-04-13T10:22:48.479Z,100.00
2023-04-13T10:25:53.127Z,100.00
2023-04-13T10:28:57.030Z,100.00
2023-04-13T10:32:03.832Z,100.00
2023-04-13T10:35:12.779Z,100.00
2023-04-13T10:38:16.068Z,100.00
2023-04-13T10:41:25.955Z,100.00
2023-04-13T10:44:29.522Z,100.00
2023-04-13T10:47:38.026Z,100.00
2023-04-13T10:50:42.441Z,100.00
2023-04-13T10:53:45.858Z,100.00
2023-04-13T10:56:58.061Z,100.00
2023-04-13T11:00:01.559Z,100.00
2023-04-13T11:03:06.598Z,100.00
2023-04-13T11:06:11.327Z,100.00
2023-04-13T11:09:17.164Z,100.00
2023-04-13T11:12:20.934Z,100.00
2023-04-13T11:15:25.842Z,100.00
2023-04-13T11:18:29.091Z,100.00
2023-04-13T11:21:35.254Z,100.00
2023-04-13T11:24:38.198Z,100.00
2023-04-13T11:27:41.574Z,100.00
2023-04-13T11:30:53.459Z,100.00
2023-04-13T11:33:57.189Z,100.00
2023-04-13T11:37:05.499Z,100.00
2023-04-13T11:40:12.923Z,100.00
2023-04-13T11:43:17.286Z,100.00
2023-04-13T11:46:25.719Z,100.00
2023-04-13T11:49:29.008Z,100.00
2023-04-13T11:52:33.725Z,100.00
2023-04-13T11:55:50.065Z,100.00
2023-04-13T11:58:57.032Z,100.00
2023-04-13T12:02:08.276Z,100.00
2023-04-13T12:05:24.388Z,100.00
2023-04-13T12:08:30.494Z,100.00
2023-04-13T12:11:42.151Z,100.00
2023-04-13T12:15:12.669Z,100.00
2023-04-13T12:21:23.812Z,100.00
2023-04-13T12:24:39.269Z,100.00
2023-04-13T12:27:42.876Z,100.00
2023-04-13T12:30:47.581Z,100.00
2023-04-13T12:33:53.822Z,100.00
2023-04-13T12:36:57.973Z,100.00
2023-04-13T12:40:02.377Z,100.00
2023-04-13T12:43:05.578Z,100.00
2023-04-13T12:46:08.579Z,100.00
2023-04-13T12:49:11.556Z,100.00
2023-04-13T12:52:15.456Z,100.00
2023-04-13T12:55:19.832Z,95.67
2023-04-13T12:58:22.786Z,97.90
2023-04-13T13:01:26.356Z,96.89
2023-04-13T13:04:30.632Z,95.23
2023-04-13T13:07:33.657Z,96.72
2023-04-13T13:10:38.643Z,99.20
2023-04-13T13:13:43.615Z,98.59
2023-04-13T13:16:47.171Z,96.46
2023-04-13T13:19:54.774Z,99.55
2023-04-13T13:22:58.233Z,97.05
2023-04-13T13:26:22.216Z,95.43
2023-04-13T13:29:27.999Z,88.88
2023-04-13T13:32:31.376Z,88.86
2023-04-13T13:35:35.864Z,90.19
2023-04-13T13:38:39.410Z,86.94
2023-04-13T13:41:43.736Z,86.00
2023-04-13T13:44:46.971Z,88.32
2023-04-13T13:47:54.046Z,83.59
2023-04-13T13:51:06.884Z,77.73
2023-04-13T13:54:11.045Z,82.28
2023-04-13T13:57:15.453Z,79.76
2023-04-13T14:00:19.883Z,82.90
2023-04-13T14:03:23.876Z,76.39
2023-04-13T14:06:31.645Z,72.08
2023-04-13T14:09:39.167Z,68.87
2023-04-13T14:12:49.599Z,74.02
2023-04-13T14:15:53.588Z,69.75
2023-04-13T14:18:56.582Z,71.19
2023-04-13T14:21:59.646Z,67.34
2023-04-13T14:25:04.337Z,66.56
2023-04-13T14:28:09.330Z,66.36
2023-04-13T14:31:14.641Z,70.72
2023-04-13T14:34:19.204Z,78.96
2023-04-13T14:37:23.278Z,72.94
2023-04-13T14:40:28.471Z,69.70
2023-04-13T14:43:32.926Z,69.93
2023-04-13T14:46:36.423Z,70.66
2023-04-13T14:49:39.435Z,67.81
2023-04-13T14:52:47.621Z,71.44
2023-04-13T14:55:50.915Z,71.13
2023-04-13T14:58:55.336Z,70.50
2023-04-13T15:01:58.533Z,75.01
2023-04-13T15:05:02.833Z,77.09
2023-04-13T15:08:07.175Z,75.23
2023-04-13T15:11:10.368Z,72.95
2023-04-13T15:14:14.789Z,74.41
2023-04-13T15:17:17.957Z,74.90
2023-04-13T15:20:21.264Z,73.98
2023-04-13T15:23:27.442Z,76.35
2023-04-13T15:26:31.060Z,76.67
2023-04-13T15:29:35.917Z,81.30
2023-04-13T15:32:40.846Z,80.64
2023-04-13T15:35:43.986Z,81.92
2023-04-13T15:39:32.791Z,77.99
2023-04-13T15:42:36.193Z,80.53
2023-04-13T15:45:43.566Z,81.34
2023-04-13T15:48:52.458Z,81.65
2023-04-13T15:51:55.696Z,81.14
2023-04-13T15:54:58.730Z,80.29
2023-04-13T15:58:03.678Z,81.45
2023-04-13T16:01:10.098Z,80.55
2023-04-13T16:04:13.317Z,81.24
2023-04-13T16:07:16.337Z,80.73
2023-04-13T16:10:19.622Z,82.45
2023-04-13T16:13:22.990Z,81.31
2023-04-13T16:16:27.980Z,84.80
2023-04-13T16:19:32.655Z,84.80
2023-04-13T16:22:37.508Z,87.34
2023-04-13T16:25:40.580Z,90.56
2023-04-13T16:28:44.699Z,87.94
2023-04-13T16:31:49.111Z,90.62
2023-04-13T16:34:53.624Z,88.35
2023-04-13T16:37:59.728Z,89.18
2023-04-13T16:41:03.107Z,90.41
2023-04-13T16:44:08.291Z,88.10
2023-04-13T16:47:12.659Z,89.42
2023-04-13T16:50:16.387Z,88.71
2023-04-13T16:53:19.594Z,91.95
2023-04-13T16:56:25.360Z,96.21
2023-04-13T16:59:28.309Z,94.82
2023-04-13T17:02:32.856Z,91.99
2023-04-13T17:05:35.935Z,91.90
2023-04-13T17:08:38.937Z,100.00
2023-04-13T17:11:42.191Z,99.28
2023-04-13T17:14:46.533Z,96.15
2023-04-13T17:17:51.085Z,96.08
2023-04-13T17:20:55.660Z,100.00
2023-04-13T17:23:58.650Z,99.84
2023-04-13T17:27:01.766Z,100.00
2023-04-13T17:30:07.660Z,98.70
2023-04-13T17:33:12.304Z,100.00
2023-04-13T17:36:15.521Z,100.00
2023-04-13T17:39:20.057Z,100.00
2023-04-13T17:42:23.819Z,100.00
2023-04-13T17:45:27.411Z,100.00
2023-04-13T17:48:31.769Z,100.00
2023-04-13T17:51:35.239Z,100.00
2023-04-13T17:54:40.749Z,100.00
2023-04-13T17:57:44.064Z,100.00
2023-04-13T18:00:47.387Z,100.00
2023-04-13T18:03:52.153Z,100.00
2023-04-13T18:06:56.983Z,100.00
2023-04-13T18:10:00.540Z,100.00
2023-04-13T18:13:04.080Z,100.00
2023-04-13T18:16:10.649Z,100.00
2023-04-13T18:19:16.909Z,100.00
2023-04-13T18:22:21.663Z,100.00
2023-04-13T18:25:26.298Z,100.00
2023-04-13T18:28:31.641Z,100.00
2023-04-13T18:32:00.784Z,100.00
2023-04-13T18:35:12.353Z,100.00
2023-04-13T18:38:15.417Z,100.00
2023-04-13T18:41:18.455Z,100.00
2023-04-13T18:44:21.527Z,100.00
2023-04-13T18:47:25.746Z,100.00
2023-04-13T18:50:30.577Z,100.00
2023-04-13T18:53:33.532Z,100.00
2023-04-13T18:56:36.832Z,100.00
2023-04-13T19:03:34.226Z,100.00
2023-04-13T19:06:38.833Z,100.00
2023-04-13T19:09:42.165Z,100.00
2023-04-13T19:12:47.539Z,100.00
2023-04-13T19:15:50.938Z,100.00
2023-04-13T19:18:54.010Z,100.00
2023-04-13T19:21:58.591Z,100.00
2023-04-13T19:25:01.734Z,100.00
2023-04-13T19:28:06.096Z,100.00
2023-04-13T19:31:09.427Z,100.00
2023-04-13T19:34:13.281Z,100.00
2023-04-13T19:37:17.825Z,100.00
2023-04-13T19:40:23.011Z,100.00
2023-04-13T19:43:28.046Z,100.00
2023-04-13T19:46:32.662Z,100.00
2023-04-13T19:49:35.987Z,100.00
2023-04-13T19:52:42.226Z,100.00
2023-04-13T19:55:45.579Z,100.00
2023-04-13T19:58:48.513Z,100.00
2023-04-13T20:01:53.524Z,100.00
2023-04-13T20:04:57.211Z,100.00
2023-04-13T20:08:01.751Z,100.00
2023-04-13T20:11:04.935Z,100.00
2023-04-13T20:14:08.198Z,100.00
2023-04-13T20:17:11.189Z,100.00
2023-04-13T20:20:17.848Z,100.00
2023-04-13T20:23:22.306Z,100.00
2023-04-13T20:26:28.049Z,100.00
2023-04-13T20:29:31.360Z,100.00
2023-04-13T20:32:34.334Z,100.00
2023-04-13T20:35:37.656Z,100.00
2023-04-13T20:38:42.902Z,100.00
2023-04-13T20:41:55.035Z,100.00
2023-04-13T20:44:58.547Z,100.00
2023-04-13T20:51:26.016Z,100.00
2023-04-13T20:54:30.735Z,100.00
2023-04-13T20:57:33.798Z,100.00
2023-04-13T21:00:36.795Z,100.00
2023-04-13T21:03:40.056Z,100.00
2023-04-13T21:06:44.986Z,100.00
2023-04-13T21:09:49.371Z,100.00
2023-04-13T21:12:55.148Z,100.00
2023-04-13T21:15:58.155Z,100.00
2023-04-13T21:19:01.160Z,100.00
2023-04-13T21:22:06.478Z,100.00
2023-04-13T21:25:13.172Z,100.00
2023-04-13T21:28:21.030Z,100.00
2023-04-13T21:31:24.210Z,100.00
2023-04-13T21:34:27.902Z,100.00
2023-04-13T21:37:30.923Z,100.00
2023-04-13T21:40:36.885Z,100.00
2023-04-13T21:43:42.586Z,100.00
2023-04-13T21:46:45.858Z,100.00
2023-04-13T21:49:48.819Z,100.00
2023-04-13T21:52:51.851Z,100.00
2023-04-13T21:55:56.429Z,100.00
2023-04-13T21:59:02.853Z,100.00
2023-04-13T22:02:06.011Z,100.00
2023-04-13T22:05:09.647Z,100.00
2023-04-13T22:08:13.160Z,100.00
2023-04-13T22:11:17.974Z,100.00
2023-04-13T22:14:24.064Z,100.00
2023-04-13T22:17:27.172Z,100.00
2023-04-13T22:20:30.362Z,100.00
2023-04-13T22:23:33.341Z,100.00
2023-04-13T22:26:37.754Z,100.00
2023-04-13T22:29:42.273Z,100.00
2023-04-13T22:32:45.426Z,100.00
2023-04-13T22:35:50.594Z,100.00
2023-04-13T22:38:54.705Z,100.00
2023-04-13T22:42:00.069Z,100.00
2023-04-13T22:45:03.298Z,100.00
2023-04-13T22:48:09.793Z,100.00
2023-04-13T22:51:12.828Z,100.00
2023-04-13T22:54:15.943Z,100.00
2023-04-13T22:57:20.287Z,100.00
2023-04-13T23:00:23.687Z,100.00
2023-04-13T23:03:27.467Z,100.00
2023-04-13T23:06:30.993Z,100.00
2023-04-13T23:09:34.555Z,100.00
2023-04-13T23:12:38.887Z,100.00
2023-04-13T23:15:41.881Z,100.00
2023-04-13T23:18:44.846Z,100.00
2023-04-13T23:21:47.951Z,100.00
2023-04-13T23:24:51.071Z,100.00
2023-04-13T23:27:55.648Z,100.00
2023-04-13T23:31:04.904Z,100.00
2023-04-13T23:34:08.216Z,100.00
2023-04-13T23:37:11.339Z,100.00
2023-04-13T23:40:14.522Z,100.00
2023-04-13T23:43:19.208Z,100.00
2023-04-13T23:46:25.328Z,100.00
2023-04-13T23:49:28.291Z,100.00
2023-04-13T23:52:31.282Z,100.00
2023-04-13T23:55:34.701Z,100.00
2023-04-13T23:58:39.012Z,100.00
